Russell, Iowa
Current Conditions -  °F | °C
As of 2:15 AM on Saturday 29 Nov 2014 (Local Time) from KCNC Reporting Station
Few Clouds Few Clouds  
Wind Chill: 32°   Ceiling: Unl
Heat Index: 39°   Visibility: 10mi
Dew Point: 34°   Wind: 10mph
Humidity: 81%   Direction: 190°S
Pressure: 29.62"   Gusts: NA
Location:  40.98°N, 93.2°W
Report Text: KCNC 290815Z AUTO 19009KT 10SM FEW270 04/01 A2962 RMK AO2
Loading
Personal Weather Stations






























Interactive Weather Map New forecast layout! Learn more

10-Day Weather Forecast

Advertisements
Track Severe Weather on mobile